createdAt,value
2018-01-23T00:00:36.386Z,1012.58
2018-01-23T00:01:36.361Z,1012.55
2018-01-23T00:02:36.334Z,1012.63
2018-01-23T00:03:36.306Z,1012.59
2018-01-23T00:04:36.279Z,1012.64
2018-01-23T00:05:36.252Z,1012.65
2018-01-23T00:06:36.231Z,1012.69
2018-01-23T00:07:36.200Z,1012.73
2018-01-23T00:08:36.172Z,1012.73
2018-01-23T00:09:36.246Z,1012.75
2018-01-23T00:10:36.120Z,1012.79
2018-01-23T00:11:36.093Z,1012.82
2018-01-23T00:12:36.066Z,1012.80
2018-01-23T00:13:36.039Z,1012.85
2018-01-23T00:14:36.017Z,1012.82
2018-01-23T00:15:35.986Z,1012.81
2018-01-23T00:16:35.960Z,1012.84
2018-01-23T00:17:35.932Z,1012.75
2018-01-23T00:18:35.909Z,1012.82
2018-01-23T00:19:35.878Z,1012.84
2018-01-23T00:20:36.804Z,1012.82
2018-01-23T00:21:35.827Z,1012.83
2018-01-23T00:22:35.801Z,1012.85
2018-01-23T00:23:35.772Z,1012.90
2018-01-23T00:24:35.745Z,1012.87
2018-01-23T00:25:35.719Z,1012.84
2018-01-23T00:26:35.692Z,1012.83
2018-01-23T00:27:35.666Z,1012.83
2018-01-23T00:28:35.639Z,1012.81
2018-01-23T00:29:35.612Z,1012.82
2018-01-23T00:30:35.587Z,1012.84
2018-01-23T00:31:35.558Z,1012.83
2018-01-23T00:32:35.632Z,1012.88
2018-01-23T00:33:35.505Z,1012.86
2018-01-23T00:34:35.479Z,1012.88
2018-01-23T00:35:35.452Z,1012.88
2018-01-23T00:36:35.426Z,1012.90
2018-01-23T00:37:35.549Z,1012.96
2018-01-23T00:38:35.372Z,1012.99
2018-01-23T00:39:35.345Z,1012.99
2018-01-23T00:40:35.318Z,1013.00
2018-01-23T00:41:35.292Z,1013.04
2018-01-23T00:42:35.266Z,1013.05
2018-01-23T00:43:35.237Z,1013.07
2018-01-23T00:44:35.212Z,1013.08
2018-01-23T00:45:35.184Z,1013.10
2018-01-23T00:46:35.159Z,1013.10
2018-01-23T00:47:35.131Z,1013.09
2018-01-23T00:48:35.103Z,1013.11
2018-01-23T00:49:35.078Z,1013.11
2018-01-23T00:50:35.053Z,1013.13
2018-01-23T00:51:35.026Z,1013.15
2018-01-23T00:52:34.997Z,1013.13
2018-01-23T00:53:34.970Z,1013.13
2018-01-23T00:54:35.092Z,1013.11
2018-01-23T00:55:34.915Z,1013.11
2018-01-23T00:56:34.888Z,1013.17
2018-01-23T00:57:34.862Z,1013.14
2018-01-23T00:58:34.835Z,1013.12
2018-01-23T00:59:34.808Z,1013.13
2018-01-23T01:00:34.781Z,1013.14
2018-01-23T01:01:34.754Z,1013.14
2018-01-23T01:02:34.727Z,1013.12
2018-01-23T01:03:34.700Z,1013.13
2018-01-23T01:04:34.674Z,1013.15
2018-01-23T01:05:34.649Z,1013.16
2018-01-23T01:06:34.624Z,1013.20
2018-01-23T01:07:34.593Z,1013.21
2018-01-23T01:08:34.567Z,1013.26
2018-01-23T01:09:34.539Z,1013.26
2018-01-23T01:10:34.512Z,1013.29
2018-01-23T01:11:34.487Z,1013.30
2018-01-23T01:12:34.459Z,1013.32
2018-01-23T01:13:34.433Z,1013.39
2018-01-23T01:14:34.556Z,1013.42
2018-01-23T01:15:34.377Z,1013.45
2018-01-23T01:16:34.350Z,1013.45
2018-01-23T01:17:34.324Z,1013.49
2018-01-23T01:18:34.298Z,1013.56
2018-01-23T01:19:34.521Z,1013.60
2018-01-23T01:20:34.244Z,1013.58
2018-01-23T01:21:34.216Z,1013.64
2018-01-23T01:22:34.191Z,1013.55
2018-01-23T01:23:34.163Z,1013.59
2018-01-23T01:24:34.139Z,1013.60
2018-01-23T01:25:34.110Z,1013.61
2018-01-23T01:26:34.082Z,1013.64
2018-01-23T01:27:34.055Z,1013.63
2018-01-23T01:28:34.029Z,1013.63
2018-01-23T01:29:34.003Z,1013.62
2018-01-23T01:30:33.976Z,1013.59
2018-01-23T01:31:33.947Z,1013.63
2018-01-23T01:32:33.921Z,1013.60
2018-01-23T01:33:33.895Z,1013.60
2018-01-23T01:34:33.875Z,1013.59
2018-01-23T01:35:33.841Z,1013.61
2018-01-23T01:36:33.815Z,1013.60
2018-01-23T01:37:33.788Z,1013.65
2018-01-23T01:38:33.762Z,1013.65
2018-01-23T01:39:33.734Z,1013.67
2018-01-23T01:40:33.707Z,1013.73
2018-01-23T01:41:33.680Z,1013.74
2018-01-23T01:42:33.660Z,1013.78
2018-01-23T01:43:33.628Z,1013.78
2018-01-23T01:44:33.600Z,1013.74
2018-01-23T01:45:33.574Z,1013.75
2018-01-23T01:46:33.547Z,1013.74
2018-01-23T01:47:33.520Z,1013.75
2018-01-23T01:48:33.494Z,1013.75
2018-01-23T01:49:33.466Z,1013.76
2018-01-23T01:50:33.440Z,1013.77
2018-01-23T01:51:33.413Z,1013.78
2018-01-23T01:52:33.385Z,1013.80
2018-01-23T01:53:33.364Z,1013.80
2018-01-23T01:54:33.333Z,1013.85
2018-01-23T01:55:33.307Z,1013.86
2018-01-23T01:56:33.279Z,1013.86
2018-01-23T01:57:33.297Z,1013.87
2018-01-23T01:58:33.475Z,1013.88
2018-01-23T01:59:33.201Z,1013.88
2018-01-23T02:00:33.170Z,1013.88
2018-01-23T02:01:33.198Z,1013.88
2018-01-23T02:02:33.118Z,1013.93
2018-01-23T02:03:33.090Z,1013.97
2018-01-23T02:04:33.062Z,1013.98
2018-01-23T02:05:33.035Z,1013.99
2018-01-23T02:06:33.008Z,1014.03
2018-01-23T02:07:32.980Z,1014.00
2018-01-23T02:08:33.104Z,1013.99
2018-01-23T02:09:32.926Z,1013.98
2018-01-23T02:10:32.899Z,1013.93
2018-01-23T02:11:32.872Z,1013.91
2018-01-23T02:12:32.845Z,1013.91
2018-01-23T02:13:32.917Z,1013.89
2018-01-23T02:14:32.791Z,1013.89
2018-01-23T02:15:32.763Z,1013.88
2018-01-23T02:16:32.735Z,1013.91
2018-01-23T02:17:32.708Z,1013.91
2018-01-23T02:18:32.681Z,1013.94
2018-01-23T02:19:32.652Z,1013.88
2018-01-23T02:20:32.625Z,1013.86
2018-01-23T02:21:32.598Z,1013.89
2018-01-23T02:22:32.572Z,1013.88
2018-01-23T02:23:32.694Z,1013.90
2018-01-23T02:24:32.517Z,1013.90
2018-01-23T02:25:32.490Z,1013.91
2018-01-23T02:26:32.463Z,1013.92
2018-01-23T02:27:32.435Z,1013.93
2018-01-23T02:28:32.414Z,1014.02
2018-01-23T02:29:32.381Z,1013.99
2018-01-23T02:30:32.354Z,1013.98
2018-01-23T02:31:32.325Z,1014.01
2018-01-23T02:32:32.298Z,1014.04
2018-01-23T02:33:32.271Z,1014.04
2018-01-23T02:34:32.246Z,1014.05
2018-01-23T02:35:32.216Z,1014.05
2018-01-23T02:36:32.190Z,1013.98
2018-01-23T02:37:32.162Z,1014.03
2018-01-23T02:38:32.136Z,1014.01
2018-01-23T02:39:32.106Z,1014.10
2018-01-23T02:40:32.080Z,1014.10
2018-01-23T02:41:32.052Z,1014.12
2018-01-23T02:42:32.027Z,1014.14
2018-01-23T02:43:32.248Z,1014.08
2018-01-23T02:44:31.971Z,1014.10
2018-01-23T02:45:31.942Z,1014.13
2018-01-23T02:46:31.917Z,1014.17
2018-01-23T02:47:31.889Z,1014.25
2018-01-23T02:48:31.860Z,1014.29
2018-01-23T02:49:31.833Z,1014.27
2018-01-23T02:50:31.807Z,1014.31
2018-01-23T02:51:31.778Z,1014.34
2018-01-23T02:52:31.751Z,1014.37
2018-01-23T02:53:31.724Z,1014.37
2018-01-23T02:54:31.696Z,1014.36
2018-01-23T02:55:31.670Z,1014.40
2018-01-23T02:56:31.641Z,1014.40
2018-01-23T02:57:31.614Z,1014.41
2018-01-23T02:58:31.587Z,1014.39
2018-01-23T02:59:31.560Z,1014.40
2018-01-23T03:00:31.532Z,1014.43
2018-01-23T03:01:31.605Z,1014.44
2018-01-23T03:02:31.479Z,1014.45
2018-01-23T03:03:31.451Z,1014.50
2018-01-23T03:04:31.424Z,1014.47
2018-01-23T03:05:31.397Z,1014.45
2018-01-23T03:06:31.372Z,1014.42
2018-01-23T03:07:31.342Z,1014.38
2018-01-23T03:08:31.315Z,1014.35
2018-01-23T03:09:31.290Z,1014.37
2018-01-23T03:10:31.260Z,1014.38
2018-01-23T03:11:31.231Z,1014.37
2018-01-23T03:12:31.204Z,1014.41
2018-01-23T03:13:31.177Z,1014.47
2018-01-23T03:14:31.154Z,1014.49
2018-01-23T03:15:31.121Z,1014.54
2018-01-23T03:16:31.094Z,1014.54
2018-01-23T03:17:31.068Z,1014.56
2018-01-23T03:18:31.291Z,1014.52
2018-01-23T03:19:31.013Z,1014.52
2018-01-23T03:20:30.986Z,1014.51
2018-01-23T03:21:31.005Z,1014.60
2018-01-23T03:22:30.932Z,1014.58
2018-01-23T03:23:30.903Z,1014.62
2018-01-23T03:24:30.876Z,1014.62
2018-01-23T03:25:30.849Z,1014.62
2018-01-23T03:26:30.823Z,1014.60
2018-01-23T03:27:30.794Z,1014.64
2018-01-23T03:28:30.766Z,1014.60
2018-01-23T03:29:30.740Z,1014.65
2018-01-23T03:30:30.714Z,1014.65
2018-01-23T03:31:30.685Z,1014.69
2018-01-23T03:32:30.659Z,1014.70
2018-01-23T03:33:30.632Z,1014.73
2018-01-23T03:34:30.604Z,1014.70
2018-01-23T03:35:30.826Z,1014.70
2018-01-23T03:36:30.549Z,1014.69
2018-01-23T03:37:30.523Z,1014.67
2018-01-23T03:38:30.497Z,1014.68
2018-01-23T03:39:30.467Z,1014.69
2018-01-23T03:40:30.442Z,1014.73
2018-01-23T03:41:30.414Z,1014.72
2018-01-23T03:42:30.387Z,1014.74
2018-01-23T03:43:30.358Z,1014.75
2018-01-23T03:44:30.331Z,1014.76
2018-01-23T03:45:30.305Z,1014.74
2018-01-23T03:46:30.278Z,1014.76
2018-01-23T03:47:30.250Z,1014.78
2018-01-23T03:48:30.223Z,1014.79
2018-01-23T03:49:30.196Z,1014.78
2018-01-23T03:50:30.168Z,1014.82
2018-01-23T03:51:30.396Z,1014.77
2018-01-23T03:52:30.113Z,1014.77
2018-01-23T03:53:30.087Z,1014.80
2018-01-23T03:54:30.059Z,1014.82
2018-01-23T03:55:30.031Z,1014.83
2018-01-23T03:56:30.005Z,1014.87
2018-01-23T03:57:29.978Z,1014.93
2018-01-23T03:58:29.950Z,1014.93
2018-01-23T03:59:29.922Z,1014.93
2018-01-23T04:00:29.896Z,1014.95
2018-01-23T04:01:29.868Z,1015.00
2018-01-23T04:02:29.991Z,1015.03
2018-01-23T04:03:29.812Z,1015.03
2018-01-23T04:04:29.791Z,1015.00
2018-01-23T04:05:29.758Z,1015.02
2018-01-23T04:06:29.731Z,1015.05
2018-01-23T04:07:29.703Z,1015.07
2018-01-23T04:08:29.675Z,1015.13
2018-01-23T04:09:29.649Z,1015.13
2018-01-23T04:10:29.622Z,1015.10
2018-01-23T04:11:29.594Z,1015.07
2018-01-23T04:12:29.567Z,1015.11
2018-01-23T04:13:29.538Z,1015.14
2018-01-23T04:14:29.513Z,1015.15
2018-01-23T04:15:29.484Z,1015.15
2018-01-23T04:16:29.456Z,1015.19
2018-01-23T04:17:29.429Z,1015.16
2018-01-23T04:18:29.405Z,1015.16
2018-01-23T04:19:29.373Z,1015.17
2018-01-23T04:20:29.347Z,1015.20
2018-01-23T04:21:29.320Z,1015.23
2018-01-23T04:22:29.293Z,1015.23
2018-01-23T04:23:29.264Z,1015.28
2018-01-23T04:24:29.237Z,1015.28
2018-01-23T04:25:29.210Z,1015.27
2018-01-23T04:26:29.287Z,1015.28
2018-01-23T04:27:29.154Z,1015.26
2018-01-23T04:28:29.126Z,1015.28
2018-01-23T04:29:29.100Z,1015.30
2018-01-23T04:30:29.072Z,1015.30
2018-01-23T04:31:29.144Z,1015.32
2018-01-23T04:32:29.018Z,1015.32
2018-01-23T04:33:28.991Z,1015.36
2018-01-23T04:34:28.962Z,1015.39
2018-01-23T04:35:28.934Z,1015.45
2018-01-23T04:36:28.908Z,1015.42
2018-01-23T04:37:28.880Z,1015.47
2018-01-23T04:38:28.853Z,1015.51
2018-01-23T04:39:28.824Z,1015.51
2018-01-23T04:40:28.796Z,1015.53
2018-01-23T04:41:28.771Z,1015.54
2018-01-23T04:42:28.748Z,1015.56
2018-01-23T04:43:28.715Z,1015.58
2018-01-23T04:44:28.689Z,1015.61
2018-01-23T04:45:28.660Z,1015.65
2018-01-23T04:46:28.634Z,1015.59
2018-01-23T04:47:28.605Z,1015.63
2018-01-23T04:48:28.578Z,1015.57
2018-01-23T04:49:28.553Z,1015.58
2018-01-23T04:50:28.527Z,1015.60
2018-01-23T04:51:28.498Z,1015.62
2018-01-23T04:52:28.472Z,1015.66
2018-01-23T04:53:28.444Z,1015.64
2018-01-23T04:54:28.416Z,1015.63
2018-01-23T04:55:28.389Z,1015.59
2018-01-23T04:56:28.612Z,1015.57
2018-01-23T04:57:28.335Z,1015.56
2018-01-23T04:58:28.307Z,1015.60
2018-01-23T04:59:28.280Z,1015.59
2018-01-23T05:00:28.253Z,1015.58
2018-01-23T05:01:28.226Z,1015.60
2018-01-23T05:02:28.200Z,1015.68
2018-01-23T05:03:28.171Z,1015.70
2018-01-23T05:04:28.145Z,1015.66
2018-01-23T05:05:28.117Z,1015.69
2018-01-23T05:06:28.090Z,1015.69
2018-01-23T05:07:28.063Z,1015.70
2018-01-23T05:08:28.035Z,1015.67
2018-01-23T05:09:28.009Z,1015.71
2018-01-23T05:10:27.981Z,1015.69
2018-01-23T05:11:27.954Z,1015.69
2018-01-23T05:12:27.928Z,1015.69
2018-01-23T05:13:27.901Z,1015.70
2018-01-23T05:14:27.873Z,1015.74
2018-01-23T05:15:27.845Z,1015.73
2018-01-23T05:16:27.819Z,1015.79
2018-01-23T05:17:27.792Z,1015.76
2018-01-23T05:18:27.766Z,1015.79
2018-01-23T05:19:27.737Z,1015.78
2018-01-23T05:20:27.710Z,1015.77
2018-01-23T05:21:27.682Z,1015.77
2018-01-23T05:22:27.657Z,1015.76
2018-01-23T05:23:27.629Z,1015.82
2018-01-23T05:24:27.602Z,1015.79
2018-01-23T05:25:27.575Z,1015.85
2018-01-23T05:26:27.549Z,1015.82
2018-01-23T05:27:27.519Z,1015.86
2018-01-23T05:28:27.492Z,1015.83
2018-01-23T05:29:27.466Z,1015.83
2018-01-23T05:30:27.690Z,1015.82
2018-01-23T05:31:27.410Z,1015.81
2018-01-23T05:32:27.383Z,1015.81
2018-01-23T05:33:27.357Z,1015.81
2018-01-23T05:34:27.331Z,1015.83
2018-01-23T05:35:27.552Z,1015.82
2018-01-23T05:36:27.274Z,1015.83
2018-01-23T05:37:27.247Z,1015.83
2018-01-23T05:38:27.220Z,1015.82
2018-01-23T05:39:27.192Z,1015.86
2018-01-23T05:40:27.166Z,1015.88
2018-01-23T05:41:27.141Z,1015.91
2018-01-23T05:42:27.111Z,1015.89
2018-01-23T05:43:27.086Z,1015.92
2018-01-23T05:44:27.056Z,1015.90
2018-01-23T05:45:27.029Z,1015.99
2018-01-23T05:46:27.001Z,1015.98
2018-01-23T05:47:26.974Z,1015.98
2018-01-23T05:48:26.945Z,1015.98
2018-01-23T05:49:26.920Z,1016.00
2018-01-23T05:50:26.893Z,1016.02
2018-01-23T05:51:26.863Z,1016.03
2018-01-23T05:52:26.839Z,1016.03
2018-01-23T05:53:26.810Z,1016.05
2018-01-23T05:54:26.782Z,1016.03
2018-01-23T05:55:26.905Z,1016.03
2018-01-23T05:56:26.728Z,1016.01
2018-01-23T05:57:26.701Z,1016.00
2018-01-23T05:58:26.673Z,1016.03
2018-01-23T05:59:26.645Z,1016.03
2018-01-23T06:00:26.621Z,1016.05
2018-01-23T06:01:26.591Z,1016.01
2018-01-23T06:02:26.566Z,1016.02
2018-01-23T06:03:26.536Z,1016.08
2018-01-23T06:04:26.528Z,1016.07
2018-01-23T06:05:26.482Z,1016.10
2018-01-23T06:06:26.456Z,1016.08
2018-01-23T06:07:26.428Z,1016.12
2018-01-23T06:08:26.400Z,1016.13
2018-01-23T06:09:26.374Z,1016.12
2018-01-23T06:10:26.347Z,1016.17
2018-01-23T06:11:26.469Z,1016.18
2018-01-23T06:12:26.292Z,1016.19
2018-01-23T06:13:26.266Z,1016.17
2018-01-23T06:14:26.238Z,1016.23
2018-01-23T06:15:26.210Z,1016.22
2018-01-23T06:16:26.184Z,1016.18
2018-01-23T06:17:26.159Z,1016.22
2018-01-23T06:18:26.130Z,1016.22
2018-01-23T06:19:26.103Z,1016.23
2018-01-23T06:20:26.075Z,1016.22
2018-01-23T06:21:26.049Z,1016.25
2018-01-23T06:22:26.021Z,1016.26
2018-01-23T06:23:25.993Z,1016.25
2018-01-23T06:24:25.967Z,1016.27
2018-01-23T06:25:25.940Z,1016.26
2018-01-23T06:26:25.916Z,1016.29
2018-01-23T06:27:25.886Z,1016.30
2018-01-23T06:28:25.869Z,1016.38
2018-01-23T06:29:25.832Z,1016.39
2018-01-23T06:30:25.806Z,1016.38
2018-01-23T06:31:25.777Z,1016.37
2018-01-23T06:32:25.806Z,1016.39
2018-01-23T06:33:25.724Z,1016.40
2018-01-23T06:34:25.697Z,1016.43
2018-01-23T06:35:25.670Z,1016.41
2018-01-23T06:36:25.643Z,1016.42
2018-01-23T06:37:25.615Z,1016.42
2018-01-23T06:38:25.590Z,1016.40
2018-01-23T06:39:25.562Z,1016.42
2018-01-23T06:40:25.536Z,1016.43
2018-01-23T06:41:25.508Z,1016.39
2018-01-23T06:42:25.481Z,1016.46
2018-01-23T06:43:25.454Z,1016.45
2018-01-23T06:44:25.426Z,1016.45
2018-01-23T06:45:25.400Z,1016.46
2018-01-23T06:46:25.373Z,1016.49
2018-01-23T06:47:25.345Z,1016.51
2018-01-23T06:48:25.567Z,1016.58
2018-01-23T06:49:25.291Z,1016.54
2018-01-23T06:50:25.264Z,1016.61
2018-01-23T06:51:25.238Z,1016.59
2018-01-23T06:52:25.211Z,1016.58
2018-01-23T06:53:25.183Z,1016.63
2018-01-23T06:54:25.158Z,1016.61
2018-01-23T06:55:25.132Z,1016.62
2018-01-23T06:56:25.104Z,1016.62
2018-01-23T06:57:25.077Z,1016.68
2018-01-23T06:58:25.050Z,1016.65
2018-01-23T06:59:25.023Z,1016.72
2018-01-23T07:00:24.998Z,1016.73
2018-01-23T07:01:24.969Z,1016.77
2018-01-23T07:02:24.944Z,1016.76
2018-01-23T07:03:24.917Z,1016.76
2018-01-23T07:04:24.893Z,1016.78
2018-01-23T07:05:24.864Z,1016.78
2018-01-23T07:06:24.837Z,1016.80
2018-01-23T07:07:24.809Z,1016.81
2018-01-23T07:08:24.783Z,1016.82
2018-01-23T07:09:24.908Z,1016.85
2018-01-23T07:10:24.730Z,1016.89
2018-01-23T07:11:24.704Z,1016.86
2018-01-23T07:12:24.678Z,1016.88
2018-01-23T07:13:24.650Z,1016.88
2018-01-23T07:14:24.674Z,1016.94
2018-01-23T07:15:24.597Z,1016.90
2018-01-23T07:16:24.571Z,1016.96
2018-01-23T07:17:24.545Z,1016.95
2018-01-23T07:18:24.518Z,1016.93
2018-01-23T07:19:24.491Z,1016.97
2018-01-23T07:20:24.464Z,1016.97
2018-01-23T07:21:24.439Z,1017.04
2018-01-23T07:22:24.419Z,1017.03
2018-01-23T07:23:24.385Z,1017.05
2018-01-23T07:24:24.360Z,1017.00
2018-01-23T07:25:24.332Z,1017.00
2018-01-23T07:26:24.356Z,1017.01
2018-01-23T07:27:24.278Z,1016.99
2018-01-23T07:28:24.254Z,1017.02
2018-01-23T07:29:24.227Z,1017.05
2018-01-23T07:30:24.450Z,1017.06
2018-01-23T07:31:24.173Z,1017.08
2018-01-23T07:32:24.148Z,1017.07
2018-01-23T07:33:24.122Z,1017.02
2018-01-23T07:34:24.096Z,1017.01
2018-01-23T07:35:24.318Z,1017.05
2018-01-23T07:36:24.042Z,1017.05
2018-01-23T07:37:24.015Z,1017.10
2018-01-23T07:38:23.993Z,1017.07
2018-01-23T07:39:23.962Z,1017.06
2018-01-23T07:40:24.086Z,1017.08
2018-01-23T07:41:23.910Z,1017.11
2018-01-23T07:42:23.885Z,1017.14
2018-01-23T07:43:23.855Z,1017.14
2018-01-23T07:44:23.831Z,1017.12
2018-01-23T07:45:23.805Z,1017.11
2018-01-23T07:46:23.779Z,1017.15
2018-01-23T07:47:23.751Z,1017.12
2018-01-23T07:48:23.724Z,1017.13
2018-01-23T07:49:23.699Z,1017.17
2018-01-23T07:50:23.674Z,1017.21
2018-01-23T07:51:23.647Z,1017.19
2018-01-23T07:52:23.621Z,1017.22
2018-01-23T07:53:23.595Z,1017.24
2018-01-23T07:54:23.568Z,1017.27
2018-01-23T07:55:23.542Z,1017.26
2018-01-23T07:56:23.516Z,1017.34
2018-01-23T07:57:23.491Z,1017.34
2018-01-23T07:58:23.466Z,1017.36
2018-01-23T07:59:23.437Z,1017.39
2018-01-23T08:00:23.410Z,1017.39
2018-01-23T08:01:23.384Z,1017.40
2018-01-23T08:02:23.359Z,1017.42
2018-01-23T08:03:23.332Z,1017.42
2018-01-23T08:04:23.307Z,1017.47
2018-01-23T08:05:23.279Z,1017.49
2018-01-23T08:06:23.305Z,1017.47
2018-01-23T08:07:23.228Z,1017.43
2018-01-23T08:08:23.202Z,1017.57
2018-01-23T08:09:23.177Z,1017.52
2018-01-23T08:10:23.150Z,1017.55
2018-01-23T08:11:23.123Z,1017.57
2018-01-23T08:12:23.098Z,1017.56
2018-01-23T08:13:23.072Z,1017.54
2018-01-23T08:14:23.046Z,1017.56
2018-01-23T08:15:23.270Z,1017.56
2018-01-23T08:16:22.994Z,1017.58
2018-01-23T08:17:22.967Z,1017.54
2018-01-23T08:18:22.944Z,1017.54
2018-01-23T08:19:22.917Z,1017.58
2018-01-23T08:20:22.891Z,1017.55
2018-01-23T08:21:22.864Z,1017.53
2018-01-23T08:22:22.839Z,1017.55
2018-01-23T08:23:22.812Z,1017.51
2018-01-23T08:24:22.788Z,1017.51
2018-01-23T08:25:22.763Z,1017.49
2018-01-23T08:26:22.740Z,1017.52
2018-01-23T08:27:22.711Z,1017.53
2018-01-23T08:28:22.686Z,1017.54
2018-01-23T08:29:22.661Z,1017.58
2018-01-23T08:30:22.634Z,1017.55
2018-01-23T08:31:22.609Z,1017.58
2018-01-23T08:32:22.587Z,1017.61
2018-01-23T08:33:22.557Z,1017.60
2018-01-23T08:34:22.533Z,1017.63
2018-01-23T08:35:22.507Z,1017.62
2018-01-23T08:36:22.631Z,1017.66
2018-01-23T08:37:22.455Z,1017.67
2018-01-23T08:38:22.432Z,1017.69
2018-01-23T08:39:22.407Z,1017.72
2018-01-23T08:40:22.380Z,1017.72
2018-01-23T08:41:22.354Z,1017.70
2018-01-23T08:42:22.329Z,1017.68
2018-01-23T08:43:22.302Z,1017.71
2018-01-23T08:44:22.279Z,1017.73
2018-01-23T08:45:22.255Z,1017.77
2018-01-23T08:46:22.229Z,1017.72
2018-01-23T08:47:22.202Z,1017.72
2018-01-23T08:48:22.176Z,1017.69
2018-01-23T08:49:22.153Z,1017.69
2018-01-23T08:50:22.131Z,1017.67
2018-01-23T08:51:22.101Z,1017.67
2018-01-23T08:52:22.077Z,1017.75
2018-01-23T08:53:22.052Z,1017.72
2018-01-23T08:54:22.027Z,1017.71
2018-01-23T08:55:22.003Z,1017.70
2018-01-23T08:56:21.975Z,1017.72
2018-01-23T08:57:21.956Z,1017.73
2018-01-23T08:58:21.926Z,1017.75
2018-01-23T08:59:21.900Z,1017.75
2018-01-23T09:00:21.876Z,1017.79
2018-01-23T09:01:22.000Z,1017.79
2018-01-23T09:02:21.825Z,1017.75
2018-01-23T09:03:21.798Z,1017.77
2018-01-23T09:04:21.773Z,1017.76
2018-01-23T09:05:21.749Z,1017.76
2018-01-23T09:06:21.975Z,1017.75
2018-01-23T09:07:21.698Z,1017.72
2018-01-23T09:08:21.674Z,1017.72
2018-01-23T09:09:21.649Z,1017.69
2018-01-23T09:10:21.625Z,1017.73
2018-01-23T09:11:21.599Z,1017.77
2018-01-23T09:12:21.574Z,1017.81
2018-01-23T09:13:21.549Z,1017.80
2018-01-23T09:14:21.525Z,1017.84
2018-01-23T09:15:21.497Z,1017.82
2018-01-23T09:16:21.724Z,1017.87
2018-01-23T09:17:21.449Z,1017.86
2018-01-23T09:18:21.425Z,1017.85
2018-01-23T09:19:21.403Z,1017.83
2018-01-23T09:20:21.380Z,1017.83
2018-01-23T09:21:21.350Z,1017.83
2018-01-23T09:22:21.328Z,1017.82
2018-01-23T09:23:21.300Z,1017.83
2018-01-23T09:24:21.275Z,1017.81
2018-01-23T09:25:21.252Z,1017.84
2018-01-23T09:26:21.226Z,1017.82
2018-01-23T09:27:21.451Z,1017.85
2018-01-23T09:28:21.177Z,1017.83
2018-01-23T09:29:21.153Z,1017.88
2018-01-23T09:30:21.128Z,1017.88
2018-01-23T09:31:21.103Z,1017.90
2018-01-23T09:32:21.245Z,1017.88
2018-01-23T09:33:21.053Z,1017.92
2018-01-23T09:34:21.030Z,1017.92
2018-01-23T09:35:21.003Z,1017.90
2018-01-23T09:36:20.979Z,1017.91
2018-01-23T09:37:20.956Z,1017.91
2018-01-23T09:38:20.931Z,1017.92
2018-01-23T09:39:20.905Z,1017.90
2018-01-23T09:40:20.884Z,1017.86
2018-01-23T09:41:20.859Z,1017.92
2018-01-23T09:42:20.834Z,1017.93
2018-01-23T09:43:20.809Z,1017.94
2018-01-23T09:44:20.784Z,1017.95
2018-01-23T09:45:20.761Z,1017.96
2018-01-23T09:46:20.736Z,1017.93
2018-01-23T09:47:20.813Z,1017.96
2018-01-23T09:48:20.688Z,1017.96
2018-01-23T09:49:20.665Z,1017.96
2018-01-23T09:50:20.640Z,1017.98
2018-01-23T09:51:20.615Z,1018.04
2018-01-23T09:52:20.848Z,1018.06
2018-01-23T09:53:20.566Z,1018.05
2018-01-23T09:54:20.543Z,1018.06
2018-01-23T09:55:20.517Z,1018.08
2018-01-23T09:56:20.494Z,1018.03
2018-01-23T09:57:20.469Z,1018.08
2018-01-23T09:58:20.496Z,1018.03
2018-01-23T09:59:20.671Z,1018.02
2018-01-23T10:00:20.397Z,1018.00
2018-01-23T10:01:20.373Z,1018.02
2018-01-23T10:02:20.349Z,1018.03
2018-01-23T10:03:20.329Z,1018.06
2018-01-23T10:04:20.324Z,1018.07
2018-01-23T10:05:20.275Z,1018.07
2018-01-23T10:06:20.251Z,1018.08
2018-01-23T10:07:20.227Z,1018.05
2018-01-23T10:08:20.203Z,1018.09
2018-01-23T10:09:20.179Z,1018.11
2018-01-23T10:10:20.154Z,1018.10
2018-01-23T10:11:20.130Z,1018.10
2018-01-23T10:12:20.105Z,1018.08
2018-01-23T10:13:20.081Z,1018.09
2018-01-23T10:14:20.056Z,1018.11
2018-01-23T10:15:20.031Z,1018.10
2018-01-23T10:16:20.109Z,1018.09
2018-01-23T10:17:19.983Z,1018.13
2018-01-23T10:18:19.969Z,1018.11
2018-01-23T10:19:19.935Z,1018.14
2018-01-23T10:20:19.912Z,1018.13
2018-01-23T10:21:20.087Z,1018.14
2018-01-23T10:22:19.864Z,1018.14
2018-01-23T10:23:19.838Z,1018.12
2018-01-23T10:24:19.814Z,1018.14
2018-01-23T10:25:19.791Z,1018.11
2018-01-23T10:26:19.766Z,1018.14
2018-01-23T10:27:19.741Z,1018.08
2018-01-23T10:28:19.726Z,1018.07
2018-01-23T10:29:19.695Z,1018.08
2018-01-23T10:30:19.670Z,1018.05
2018-01-23T10:31:19.795Z,1018.03
2018-01-23T10:32:19.622Z,1018.06
2018-01-23T10:33:19.603Z,1018.02
2018-01-23T10:34:19.574Z,1018.01
2018-01-23T10:35:19.551Z,1018.01
2018-01-23T10:36:19.525Z,1017.98
2018-01-23T10:37:19.500Z,1018.00
2018-01-23T10:38:19.476Z,1018.00
2018-01-23T10:39:19.451Z,1017.99
2018-01-23T10:40:19.426Z,1017.97
2018-01-23T10:41:19.404Z,1017.97
2018-01-23T10:42:19.379Z,1018.00
2018-01-23T10:43:19.359Z,1017.96
2018-01-23T10:44:19.331Z,1017.90
2018-01-23T10:45:19.306Z,1017.99
2018-01-23T10:46:19.283Z,1017.94
2018-01-23T10:47:19.260Z,1017.92
2018-01-23T10:48:19.233Z,1017.94
2018-01-23T10:49:19.210Z,1017.94
2018-01-23T10:50:19.185Z,1017.91
2018-01-23T10:51:19.162Z,1017.90
2018-01-23T10:52:19.138Z,1017.93
2018-01-23T10:53:19.214Z,1017.90
2018-01-23T10:54:19.097Z,1017.90
2018-01-23T10:55:19.064Z,1017.96
2018-01-23T10:56:19.042Z,1017.89
2018-01-23T10:57:19.091Z,1017.86
2018-01-23T10:58:18.996Z,1017.85
2018-01-23T10:59:18.970Z,1017.83
2018-01-23T11:00:18.945Z,1017.83
2018-01-23T11:01:18.923Z,1017.83
2018-01-23T11:02:18.898Z,1017.88
2018-01-23T11:03:18.874Z,1017.83
2018-01-23T11:04:18.854Z,1017.84
2018-01-23T11:05:18.827Z,1017.83
2018-01-23T11:06:18.803Z,1017.83
2018-01-23T11:07:18.779Z,1017.81
2018-01-23T11:08:18.756Z,1017.82
2018-01-23T11:09:18.733Z,1017.81
2018-01-23T11:10:18.709Z,1017.79
2018-01-23T11:11:18.684Z,1017.80
2018-01-23T11:12:18.664Z,1017.81
2018-01-23T11:13:18.688Z,1017.82
2018-01-23T11:14:18.613Z,1017.83
2018-01-23T11:15:18.589Z,1017.83
2018-01-23T11:16:18.564Z,1017.81
2018-01-23T11:17:18.543Z,1017.83
2018-01-23T11:18:18.517Z,1017.82
2018-01-23T11:19:18.694Z,1017.81
2018-01-23T11:20:18.470Z,1017.81
2018-01-23T11:21:18.446Z,1017.81
2018-01-23T11:22:18.423Z,1017.83
2018-01-23T11:23:18.397Z,1017.83
2018-01-23T11:24:18.376Z,1017.74
2018-01-23T11:25:18.350Z,1017.72
2018-01-23T11:26:18.326Z,1017.78
2018-01-23T11:27:18.301Z,1017.76
2018-01-23T11:28:18.279Z,1017.73
2018-01-23T11:29:18.256Z,1017.73
2018-01-23T11:30:18.232Z,1017.72
2018-01-23T11:31:18.210Z,1017.70
2018-01-23T11:32:18.184Z,1017.71
2018-01-23T11:33:18.161Z,1017.74
2018-01-23T11:34:18.237Z,1017.74
2018-01-23T11:35:18.113Z,1017.72
2018-01-23T11:36:18.090Z,1017.72
2018-01-23T11:37:18.066Z,1017.78
2018-01-23T11:38:18.043Z,1017.73
2018-01-23T11:39:18.137Z,1017.70
2018-01-23T11:40:17.994Z,1017.67
2018-01-23T11:41:17.971Z,1017.68
2018-01-23T11:42:17.949Z,1017.69
2018-01-23T11:43:17.925Z,1017.75
2018-01-23T11:44:18.051Z,1017.71
2018-01-23T11:45:17.877Z,1017.71
2018-01-23T11:46:17.877Z,1017.74
2018-01-23T11:47:17.831Z,1017.72
2018-01-23T11:48:17.807Z,1017.71
2018-01-23T11:49:17.784Z,1017.72
2018-01-23T11:50:17.761Z,1017.74
2018-01-23T11:51:17.738Z,1017.75
2018-01-23T11:52:17.717Z,1017.72
2018-01-23T11:53:17.792Z,1017.72
2018-01-23T11:54:17.669Z,1017.72
2018-01-23T11:55:17.647Z,1017.70
2018-01-23T11:56:17.623Z,1017.72
2018-01-23T11:57:17.599Z,1017.72
2018-01-23T11:58:17.577Z,1017.73
2018-01-23T11:59:17.553Z,1017.70
2018-01-23T12:00:17.530Z,1017.72
2018-01-23T12:01:17.506Z,1017.74
2018-01-23T12:02:17.485Z,1017.75
2018-01-23T12:03:17.461Z,1017.71
2018-01-23T12:04:17.437Z,1017.72
2018-01-23T12:05:17.415Z,1017.71